sensor_id;sensor_type;location;lat;lon;timestamp;P1;durP1;ratioP1;P2;durP2;ratioP2
4363;SDS011;15337;48.202;12.770;2022-09-06T00:00:05;21.38;;;19.38;;
4363;SDS011;15337;48.202;12.770;2022-09-06T00:02:35;21.10;;;19.20;;
4363;SDS011;15337;48.202;12.770;2022-09-06T00:05:02;20.40;;;18.67;;
4363;SDS011;15337;48.202;12.770;2022-09-06T00:07:30;19.58;;;17.77;;
4363;SDS011;15337;48.202;12.770;2022-09-06T00:09:57;17.75;;;15.93;;
4363;SDS011;15337;48.202;12.770;2022-09-06T00:12:25;19.63;;;17.83;;
4363;SDS011;15337;48.202;12.770;2022-09-06T00:14:53;16.92;;;15.25;;
4363;SDS011;15337;48.202;12.770;2022-09-06T00:17:20;18.80;;;16.80;;
4363;SDS011;15337;48.202;12.770;2022-09-06T00:19:47;18.70;;;17.00;;
4363;SDS011;15337;48.202;12.770;2022-09-06T00:22:14;23.88;;;21.05;;
4363;SDS011;15337;48.202;12.770;2022-09-06T00:24:41;21.50;;;19.35;;
4363;SDS011;15337;48.202;12.770;2022-09-06T00:27:08;17.67;;;16.27;;
4363;SDS011;15337;48.202;12.770;2022-09-06T00:29:36;20.67;;;18.65;;
4363;SDS011;15337;48.202;12.770;2022-09-06T00:32:03;21.15;;;19.25;;
4363;SDS011;15337;48.202;12.770;2022-09-06T00:34:30;18.67;;;16.98;;
4363;SDS011;15337;48.202;12.770;2022-09-06T00:36:57;23.42;;;20.45;;
4363;SDS011;15337;48.202;12.770;2022-09-06T00:39:24;22.35;;;19.27;;
4363;SDS011;15337;48.202;12.770;2022-09-06T00:41:51;18.50;;;16.88;;
4363;SDS011;15337;48.202;12.770;2022-09-06T00:44:18;17.13;;;15.60;;
4363;SDS011;15337;48.202;12.770;2022-09-06T00:46:46;18.00;;;16.40;;
4363;SDS011;15337;48.202;12.770;2022-09-06T00:49:18;16.30;;;14.70;;
4363;SDS011;15337;48.202;12.770;2022-09-06T00:51:50;16.67;;;14.95;;
4363;SDS011;15337;48.202;12.770;2022-09-06T00:54:18;15.43;;;14.02;;
4363;SDS011;15337;48.202;12.770;2022-09-06T00:56:45;15.52;;;14.32;;
4363;SDS011;15337;48.202;12.770;2022-09-06T00:59:13;16.60;;;15.13;;
4363;SDS011;15337;48.202;12.770;2022-09-06T01:01:41;18.75;;;16.83;;
4363;SDS011;15337;48.202;12.770;2022-09-06T01:04:09;18.70;;;16.20;;
4363;SDS011;15337;48.202;12.770;2022-09-06T01:06:40;15.25;;;14.15;;
4363;SDS011;15337;48.202;12.770;2022-09-06T01:09:16;15.45;;;14.02;;
4363;SDS011;15337;48.202;12.770;2022-09-06T01:11:57;16.50;;;14.90;;
4363;SDS011;15337;48.202;12.770;2022-09-06T01:14:39;16.75;;;15.35;;
4363;SDS011;15337;48.202;12.770;2022-09-06T01:17:16;16.63;;;15.00;;
4363;SDS011;15337;48.202;12.770;2022-09-06T01:20:06;15.65;;;14.32;;
4363;SDS011;15337;48.202;12.770;2022-09-06T01:23:08;14.67;;;13.20;;
4363;SDS011;15337;48.202;12.770;2022-09-06T01:25:58;14.57;;;13.47;;
4363;SDS011;15337;48.202;12.770;2022-09-06T01:28:39;18.27;;;16.23;;
4363;SDS011;15337;48.202;12.770;2022-09-06T01:31:12;16.60;;;15.10;;
4363;SDS011;15337;48.202;12.770;2022-09-06T01:33:47;19.70;;;17.53;;
4363;SDS011;15337;48.202;12.770;2022-09-06T01:36:24;18.40;;;16.60;;
4363;SDS011;15337;48.202;12.770;2022-09-06T01:38:54;18.97;;;17.17;;
4363;SDS011;15337;48.202;12.770;2022-09-06T01:41:21;16.93;;;15.53;;
4363;SDS011;15337;48.202;12.770;2022-09-06T01:43:50;18.88;;;16.05;;
4363;SDS011;15337;48.202;12.770;2022-09-06T01:46:21;17.60;;;16.00;;
4363;SDS011;15337;48.202;12.770;2022-09-06T01:48:57;15.98;;;14.63;;
4363;SDS011;15337;48.202;12.770;2022-09-06T01:51:39;18.83;;;13.20;;
4363;SDS011;15337;48.202;12.770;2022-09-06T01:54:19;17.70;;;16.03;;
4363;SDS011;15337;48.202;12.770;2022-09-06T01:57:02;22.37;;;19.10;;
4363;SDS011;15337;48.202;12.770;2022-09-06T01:59:44;19.43;;;17.20;;
4363;SDS011;15337;48.202;12.770;2022-09-06T02:02:31;15.43;;;14.03;;
4363;SDS011;15337;48.202;12.770;2022-09-06T02:05:07;14.50;;;13.10;;
4363;SDS011;15337;48.202;12.770;2022-09-06T02:07:38;13.20;;;12.20;;
4363;SDS011;15337;48.202;12.770;2022-09-06T02:10:09;16.27;;;14.67;;
4363;SDS011;15337;48.202;12.770;2022-09-06T02:12:42;21.07;;;16.90;;
4363;SDS011;15337;48.202;12.770;2022-09-06T02:15:15;17.23;;;15.07;;
4363;SDS011;15337;48.202;12.770;2022-09-06T02:17:46;17.93;;;16.13;;
4363;SDS011;15337;48.202;12.770;2022-09-06T02:20:19;22.40;;;18.07;;
4363;SDS011;15337;48.202;12.770;2022-09-06T02:22:50;19.27;;;17.20;;
4363;SDS011;15337;48.202;12.770;2022-09-06T02:25:20;17.73;;;15.93;;
4363;SDS011;15337;48.202;12.770;2022-09-06T02:27:51;16.70;;;15.20;;
4363;SDS011;15337;48.202;12.770;2022-09-06T02:30:21;18.00;;;16.53;;
4363;SDS011;15337;48.202;12.770;2022-09-06T02:32:49;15.33;;;13.97;;
4363;SDS011;15337;48.202;12.770;2022-09-06T02:35:20;18.40;;;16.80;;
4363;SDS011;15337;48.202;12.770;2022-09-06T02:37:48;18.27;;;15.60;;
4363;SDS011;15337;48.202;12.770;2022-09-06T02:40:15;17.63;;;16.03;;
4363;SDS011;15337;48.202;12.770;2022-09-06T02:42:43;18.77;;;17.07;;
4363;SDS011;15337;48.202;12.770;2022-09-06T02:45:10;19.47;;;17.43;;
4363;SDS011;15337;48.202;12.770;2022-09-06T02:47:38;18.30;;;16.63;;
4363;SDS011;15337;48.202;12.770;2022-09-06T02:50:05;16.07;;;14.50;;
4363;SDS011;15337;48.202;12.770;2022-09-06T02:52:33;17.80;;;16.23;;
4363;SDS011;15337;48.202;12.770;2022-09-06T02:55:00;16.87;;;15.10;;
4363;SDS011;15337;48.202;12.770;2022-09-06T02:57:27;15.53;;;13.87;;
4363;SDS011;15337;48.202;12.770;2022-09-06T02:59:53;17.27;;;15.67;;
4363;SDS011;15337;48.202;12.770;2022-09-06T03:02:20;22.03;;;19.70;;
4363;SDS011;15337;48.202;12.770;2022-09-06T03:04:48;18.13;;;16.43;;
4363;SDS011;15337;48.202;12.770;2022-09-06T03:07:15;22.57;;;18.87;;
4363;SDS011;15337;48.202;12.770;2022-09-06T03:09:42;18.93;;;17.13;;
4363;SDS011;15337;48.202;12.770;2022-09-06T03:12:09;19.53;;;17.67;;
4363;SDS011;15337;48.202;12.770;2022-09-06T03:14:36;23.43;;;21.00;;
4363;SDS011;15337;48.202;12.770;2022-09-06T03:17:05;25.17;;;19.60;;
4363;SDS011;15337;48.202;12.770;2022-09-06T03:19:32;22.17;;;19.90;;
4363;SDS011;15337;48.202;12.770;2022-09-06T03:22:00;21.90;;;19.70;;
4363;SDS011;15337;48.202;12.770;2022-09-06T03:24:27;22.47;;;20.07;;
4363;SDS011;15337;48.202;12.770;2022-09-06T03:26:54;26.87;;;19.00;;
4363;SDS011;15337;48.202;12.770;2022-09-06T03:29:21;20.67;;;18.60;;
4363;SDS011;15337;48.202;12.770;2022-09-06T03:31:47;22.00;;;19.53;;
4363;SDS011;15337;48.202;12.770;2022-09-06T03:34:14;17.77;;;16.30;;
4363;SDS011;15337;48.202;12.770;2022-09-06T03:36:41;17.60;;;15.90;;
4363;SDS011;15337;48.202;12.770;2022-09-06T03:39:10;21.20;;;18.40;;
4363;SDS011;15337;48.202;12.770;2022-09-06T03:41:37;21.17;;;19.27;;
4363;SDS011;15337;48.202;12.770;2022-09-06T03:44:04;22.37;;;19.90;;
4363;SDS011;15337;48.202;12.770;2022-09-06T03:46:31;27.20;;;23.20;;
4363;SDS011;15337;48.202;12.770;2022-09-06T03:48:58;21.17;;;19.10;;
4363;SDS011;15337;48.202;12.770;2022-09-06T03:51:26;21.00;;;18.60;;
4363;SDS011;15337;48.202;12.770;2022-09-06T03:53:53;21.27;;;17.23;;
4363;SDS011;15337;48.202;12.770;2022-09-06T03:56:21;20.30;;;18.17;;
4363;SDS011;15337;48.202;12.770;2022-09-06T03:58:48;22.43;;;20.20;;
4363;SDS011;15337;48.202;12.770;2022-09-06T04:01:14;21.10;;;18.93;;
4363;SDS011;15337;48.202;12.770;2022-09-06T04:03:41;16.40;;;14.93;;
4363;SDS011;15337;48.202;12.770;2022-09-06T04:06:08;19.53;;;17.80;;
4363;SDS011;15337;48.202;12.770;2022-09-06T04:08:36;27.87;;;22.20;;
4363;SDS011;15337;48.202;12.770;2022-09-06T04:11:03;19.43;;;16.97;;
4363;SDS011;15337;48.202;12.770;2022-09-06T04:13:32;19.90;;;18.10;;
4363;SDS011;15337;48.202;12.770;2022-09-06T04:16:00;18.43;;;16.73;;
4363;SDS011;15337;48.202;12.770;2022-09-06T04:18:27;19.73;;;17.83;;
4363;SDS011;15337;48.202;12.770;2022-09-06T04:20:54;22.93;;;20.53;;
4363;SDS011;15337;48.202;12.770;2022-09-06T04:23:21;20.43;;;18.30;;
4363;SDS011;15337;48.202;12.770;2022-09-06T04:25:50;21.07;;;18.23;;
4363;SDS011;15337;48.202;12.770;2022-09-06T04:28:18;18.17;;;16.53;;
4363;SDS011;15337;48.202;12.770;2022-09-06T04:30:51;19.53;;;17.10;;
4363;SDS011;15337;48.202;12.770;2022-09-06T04:33:19;18.23;;;16.30;;
4363;SDS011;15337;48.202;12.770;2022-09-06T04:35:49;28.40;;;16.13;;
4363;SDS011;15337;48.202;12.770;2022-09-06T04:38:16;19.70;;;17.70;;
4363;SDS011;15337;48.202;12.770;2022-09-06T04:40:43;21.00;;;16.83;;
4363;SDS011;15337;48.202;12.770;2022-09-06T04:43:10;25.23;;;22.43;;
4363;SDS011;15337;48.202;12.770;2022-09-06T04:45:37;25.93;;;20.43;;
4363;SDS011;15337;48.202;12.770;2022-09-06T04:48:05;19.73;;;17.27;;
4363;SDS011;15337;48.202;12.770;2022-09-06T04:50:33;19.30;;;17.50;;
4363;SDS011;15337;48.202;12.770;2022-09-06T04:53:00;21.60;;;19.10;;
4363;SDS011;15337;48.202;12.770;2022-09-06T04:55:26;25.30;;;18.30;;
4363;SDS011;15337;48.202;12.770;2022-09-06T04:57:55;19.33;;;17.67;;
4363;SDS011;15337;48.202;12.770;2022-09-06T05:00:23;20.60;;;18.47;;
4363;SDS011;15337;48.202;12.770;2022-09-06T05:02:50;20.27;;;18.20;;
4363;SDS011;15337;48.202;12.770;2022-09-06T05:05:19;21.10;;;18.20;;
4363;SDS011;15337;48.202;12.770;2022-09-06T05:07:46;26.83;;;19.70;;
4363;SDS011;15337;48.202;12.770;2022-09-06T05:10:13;22.43;;;18.10;;
4363;SDS011;15337;48.202;12.770;2022-09-06T05:12:40;22.50;;;18.73;;
4363;SDS011;15337;48.202;12.770;2022-09-06T05:15:07;20.60;;;18.47;;
4363;SDS011;15337;48.202;12.770;2022-09-06T05:17:35;22.40;;;19.97;;
4363;SDS011;15337;48.202;12.770;2022-09-06T05:20:02;21.53;;;19.00;;
4363;SDS011;15337;48.202;12.770;2022-09-06T05:22:31;23.60;;;19.00;;
4363;SDS011;15337;48.202;12.770;2022-09-06T05:24:57;20.43;;;18.33;;
4363;SDS011;15337;48.202;12.770;2022-09-06T05:27:24;19.53;;;17.73;;
4363;SDS011;15337;48.202;12.770;2022-09-06T05:29:51;22.20;;;19.80;;
4363;SDS011;15337;48.202;12.770;2022-09-06T05:32:18;19.60;;;17.70;;
4363;SDS011;15337;48.202;12.770;2022-09-06T05:34:45;29.57;;;18.90;;
4363;SDS011;15337;48.202;12.770;2022-09-06T05:37:12;21.67;;;19.60;;
4363;SDS011;15337;48.202;12.770;2022-09-06T05:39:40;24.90;;;22.57;;
4363;SDS011;15337;48.202;12.770;2022-09-06T05:42:07;27.20;;;22.37;;
4363;SDS011;15337;48.202;12.770;2022-09-06T05:44:35;24.10;;;21.67;;
4363;SDS011;15337;48.202;12.770;2022-09-06T05:47:02;27.67;;;24.90;;
4363;SDS011;15337;48.202;12.770;2022-09-06T05:49:30;21.90;;;19.60;;
4363;SDS011;15337;48.202;12.770;2022-09-06T05:51:57;25.60;;;22.87;;
4363;SDS011;15337;48.202;12.770;2022-09-06T05:54:24;26.23;;;23.40;;
4363;SDS011;15337;48.202;12.770;2022-09-06T05:56:52;29.97;;;26.97;;
4363;SDS011;15337;48.202;12.770;2022-09-06T05:59:19;25.57;;;22.83;;
4363;SDS011;15337;48.202;12.770;2022-09-06T06:01:46;29.23;;;25.93;;
4363;SDS011;15337;48.202;12.770;2022-09-06T06:04:14;29.70;;;26.50;;
4363;SDS011;15337;48.202;12.770;2022-09-06T06:06:42;31.57;;;27.90;;
4363;SDS011;15337;48.202;12.770;2022-09-06T06:09:10;38.40;;;28.53;;
4363;SDS011;15337;48.202;12.770;2022-09-06T06:11:37;42.43;;;32.10;;
4363;SDS011;15337;48.202;12.770;2022-09-06T06:14:06;36.23;;;31.03;;
4363;SDS011;15337;48.202;12.770;2022-09-06T06:16:33;42.83;;;33.90;;
4363;SDS011;15337;48.202;12.770;2022-09-06T06:19:00;44.80;;;32.77;;
4363;SDS011;15337;48.202;12.770;2022-09-06T06:21:28;37.70;;;33.30;;
4363;SDS011;15337;48.202;12.770;2022-09-06T06:23:57;41.80;;;34.13;;
4363;SDS011;15337;48.202;12.770;2022-09-06T06:26:25;37.20;;;33.17;;
4363;SDS011;15337;48.202;12.770;2022-09-06T06:28:54;35.20;;;30.53;;
4363;SDS011;15337;48.202;12.770;2022-09-06T06:31:24;36.23;;;32.33;;
4363;SDS011;15337;48.202;12.770;2022-09-06T06:33:51;33.03;;;29.60;;
4363;SDS011;15337;48.202;12.770;2022-09-06T06:36:19;46.10;;;33.50;;
4363;SDS011;15337;48.202;12.770;2022-09-06T06:38:47;36.67;;;32.23;;
4363;SDS011;15337;48.202;12.770;2022-09-06T06:41:16;42.23;;;34.20;;
4363;SDS011;15337;48.202;12.770;2022-09-06T06:43:45;43.43;;;36.30;;
4363;SDS011;15337;48.202;12.770;2022-09-06T06:46:12;38.63;;;34.43;;
4363;SDS011;15337;48.202;12.770;2022-09-06T06:48:42;41.45;;;34.83;;
4363;SDS011;15337;48.202;12.770;2022-09-06T06:51:11;44.63;;;37.55;;
4363;SDS011;15337;48.202;12.770;2022-09-06T06:53:39;43.30;;;35.47;;
4363;SDS011;15337;48.202;12.770;2022-09-06T06:56:13;42.53;;;35.38;;
4363;SDS011;15337;48.202;12.770;2022-09-06T06:58:41;45.03;;;37.40;;
4363;SDS011;15337;48.202;12.770;2022-09-06T07:01:08;48.88;;;36.00;;
4363;SDS011;15337;48.202;12.770;2022-09-06T07:03:36;41.95;;;36.53;;
4363;SDS011;15337;48.202;12.770;2022-09-06T07:06:04;42.85;;;34.90;;
4363;SDS011;15337;48.202;12.770;2022-09-06T07:08:32;44.00;;;34.70;;
4363;SDS011;15337;48.202;12.770;2022-09-06T07:10:59;48.58;;;35.65;;
4363;SDS011;15337;48.202;12.770;2022-09-06T07:13:26;40.50;;;33.63;;
4363;SDS011;15337;48.202;12.770;2022-09-06T07:16:04;42.13;;;35.95;;
4363;SDS011;15337;48.202;12.770;2022-09-06T07:18:32;42.78;;;35.55;;
4363;SDS011;15337;48.202;12.770;2022-09-06T07:20:59;39.85;;;35.33;;
4363;SDS011;15337;48.202;12.770;2022-09-06T07:23:27;48.28;;;34.90;;
4363;SDS011;15337;48.202;12.770;2022-09-06T07:25:54;40.53;;;36.13;;
4363;SDS011;15337;48.202;12.770;2022-09-06T07:28:21;40.38;;;34.08;;
4363;SDS011;15337;48.202;12.770;2022-09-06T07:30:51;41.65;;;33.90;;
4363;SDS011;15337;48.202;12.770;2022-09-06T07:33:19;33.10;;;29.73;;
4363;SDS011;15337;48.202;12.770;2022-09-06T07:35:53;35.40;;;28.95;;
4363;SDS011;15337;48.202;12.770;2022-09-06T07:38:24;30.88;;;27.13;;
4363;SDS011;15337;48.202;12.770;2022-09-06T07:40:53;28.70;;;25.83;;
4363;SDS011;15337;48.202;12.770;2022-09-06T07:43:21;26.58;;;23.15;;
4363;SDS011;15337;48.202;12.770;2022-09-06T07:45:48;23.88;;;21.38;;
4363;SDS011;15337;48.202;12.770;2022-09-06T07:48:23;20.02;;;17.95;;
4363;SDS011;15337;48.202;12.770;2022-09-06T07:50:50;23.50;;;19.52;;
4363;SDS011;15337;48.202;12.770;2022-09-06T07:53:17;24.40;;;20.10;;
4363;SDS011;15337;48.202;12.770;2022-09-06T07:55:44;22.08;;;17.98;;
4363;SDS011;15337;48.202;12.770;2022-09-06T07:58:12;19.83;;;14.55;;
4363;SDS011;15337;48.202;12.770;2022-09-06T08:00:39;14.85;;;13.07;;
4363;SDS011;15337;48.202;12.770;2022-09-06T08:03:06;14.20;;;12.80;;
4363;SDS011;15337;48.202;12.770;2022-09-06T08:05:33;14.00;;;13.00;;
4363;SDS011;15337;48.202;12.770;2022-09-06T08:08:00;14.63;;;13.23;;
4363;SDS011;15337;48.202;12.770;2022-09-06T08:10:27;15.70;;;13.70;;
4363;SDS011;15337;48.202;12.770;2022-09-06T08:12:54;15.63;;;13.52;;
4363;SDS011;15337;48.202;12.770;2022-09-06T08:15:22;16.48;;;14.95;;
4363;SDS011;15337;48.202;12.770;2022-09-06T08:17:49;15.63;;;14.07;;
4363;SDS011;15337;48.202;12.770;2022-09-06T08:20:16;15.10;;;13.88;;
4363;SDS011;15337;48.202;12.770;2022-09-06T08:22:43;17.45;;;13.80;;
4363;SDS011;15337;48.202;12.770;2022-09-06T08:25:10;16.25;;;14.85;;
4363;SDS011;15337;48.202;12.770;2022-09-06T08:27:37;13.50;;;12.60;;
4363;SDS011;15337;48.202;12.770;2022-09-06T08:30:04;13.15;;;12.05;;
4363;SDS011;15337;48.202;12.770;2022-09-06T08:32:33;14.50;;;12.43;;
4363;SDS011;15337;48.202;12.770;2022-09-06T08:35:03;13.27;;;12.30;;
4363;SDS011;15337;48.202;12.770;2022-09-06T08:37:30;12.68;;;11.55;;
4363;SDS011;15337;48.202;12.770;2022-09-06T08:39:57;11.98;;;11.27;;
4363;SDS011;15337;48.202;12.770;2022-09-06T08:42:24;11.68;;;10.60;;
4363;SDS011;15337;48.202;12.770;2022-09-06T08:44:51;10.63;;;9.93;;
4363;SDS011;15337;48.202;12.770;2022-09-06T08:47:22;9.35;;;8.57;;
4363;SDS011;15337;48.202;12.770;2022-09-06T08:49:51;8.65;;;8.07;;
4363;SDS011;15337;48.202;12.770;2022-09-06T08:52:30;8.82;;;8.32;;
4363;SDS011;15337;48.202;12.770;2022-09-06T08:55:21;9.85;;;9.13;;
4363;SDS011;15337;48.202;12.770;2022-09-06T08:58:10;11.70;;;9.38;;
4363;SDS011;15337;48.202;12.770;2022-09-06T09:00:49;19.15;;;8.65;;
4363;SDS011;15337;48.202;12.770;2022-09-06T09:03:22;10.68;;;9.85;;
4363;SDS011;15337;48.202;12.770;2022-09-06T09:05:56;10.38;;;9.57;;
4363;SDS011;15337;48.202;12.770;2022-09-06T09:08:24;11.20;;;9.43;;
4363;SDS011;15337;48.202;12.770;2022-09-06T09:10:57;9.60;;;9.00;;
4363;SDS011;15337;48.202;12.770;2022-09-06T09:13:28;12.18;;;10.57;;
4363;SDS011;15337;48.202;12.770;2022-09-06T09:15:59;9.77;;;8.95;;
4363;SDS011;15337;48.202;12.770;2022-09-06T09:18:26;10.13;;;7.65;;
4363;SDS011;15337;48.202;12.770;2022-09-06T09:20:57;7.53;;;7.07;;
4363;SDS011;15337;48.202;12.770;2022-09-06T09:23:25;7.88;;;7.32;;
4363;SDS011;15337;48.202;12.770;2022-09-06T09:25:54;6.90;;;6.50;;
4363;SDS011;15337;48.202;12.770;2022-09-06T09:28:25;5.97;;;5.28;;
4363;SDS011;15337;48.202;12.770;2022-09-06T09:30:53;5.57;;;5.28;;
4363;SDS011;15337;48.202;12.770;2022-09-06T09:33:21;6.65;;;5.63;;
4363;SDS011;15337;48.202;12.770;2022-09-06T09:35:53;4.97;;;4.68;;
4363;SDS011;15337;48.202;12.770;2022-09-06T09:38:23;5.55;;;5.18;;
4363;SDS011;15337;48.202;12.770;2022-09-06T09:40:52;4.88;;;4.68;;
4363;SDS011;15337;48.202;12.770;2022-09-06T09:43:21;7.78;;;4.80;;
4363;SDS011;15337;48.202;12.770;2022-09-06T09:46:09;4.55;;;4.25;;
4363;SDS011;15337;48.202;12.770;2022-09-06T09:48:41;10.13;;;4.10;;
4363;SDS011;15337;48.202;12.770;2022-09-06T09:51:21;5.53;;;3.65;;
4363;SDS011;15337;48.202;12.770;2022-09-06T09:53:51;4.25;;;3.17;;
4363;SDS011;15337;48.202;12.770;2022-09-06T09:56:23;3.65;;;3.45;;
4363;SDS011;15337;48.202;12.770;2022-09-06T09:58:53;3.63;;;3.42;;
4363;SDS011;15337;48.202;12.770;2022-09-06T10:01:25;3.63;;;3.40;;
4363;SDS011;15337;48.202;12.770;2022-09-06T10:04:03;5.88;;;3.15;;
4363;SDS011;15337;48.202;12.770;2022-09-06T10:06:32;3.65;;;3.45;;
4363;SDS011;15337;48.202;12.770;2022-09-06T10:09:12;3.00;;;2.80;;
4363;SDS011;15337;48.202;12.770;2022-09-06T10:11:47;6.13;;;3.17;;
4363;SDS011;15337;48.202;12.770;2022-09-06T10:14:24;5.78;;;3.60;;
4363;SDS011;15337;48.202;12.770;2022-09-06T10:16:53;3.67;;;3.38;;
4363;SDS011;15337;48.202;12.770;2022-09-06T10:19:21;3.50;;;2.80;;
4363;SDS011;15337;48.202;12.770;2022-09-06T10:21:58;6.70;;;2.88;;
4363;SDS011;15337;48.202;12.770;2022-09-06T10:24:37;3.17;;;2.97;;
4363;SDS011;15337;48.202;12.770;2022-09-06T10:27:15;4.05;;;3.10;;
4363;SDS011;15337;48.202;12.770;2022-09-06T10:29:49;2.90;;;2.70;;
4363;SDS011;15337;48.202;12.770;2022-09-06T10:32:26;3.05;;;2.85;;
4363;SDS011;15337;48.202;12.770;2022-09-06T10:35:04;12.68;;;3.95;;
4363;SDS011;15337;48.202;12.770;2022-09-06T10:37:52;3.80;;;3.50;;
4363;SDS011;15337;48.202;12.770;2022-09-06T10:40:36;4.13;;;3.85;;
4363;SDS011;15337;48.202;12.770;2022-09-06T10:43:12;7.15;;;3.85;;
4363;SDS011;15337;48.202;12.770;2022-09-06T10:45:44;4.13;;;2.85;;
4363;SDS011;15337;48.202;12.770;2022-09-06T10:48:15;3.50;;;3.20;;
4363;SDS011;15337;48.202;12.770;2022-09-06T10:50:47;4.03;;;3.22;;
4363;SDS011;15337;48.202;12.770;2022-09-06T10:53:21;3.35;;;3.05;;
4363;SDS011;15337;48.202;12.770;2022-09-06T10:56:00;4.03;;;3.33;;
4363;SDS011;15337;48.202;12.770;2022-09-06T10:58:30;4.35;;;2.85;;
4363;SDS011;15337;48.202;12.770;2022-09-06T11:01:02;3.40;;;2.90;;
4363;SDS011;15337;48.202;12.770;2022-09-06T11:03:33;3.35;;;3.08;;
4363;SDS011;15337;48.202;12.770;2022-09-06T11:06:06;3.40;;;3.20;;
4363;SDS011;15337;48.202;12.770;2022-09-06T11:08:36;4.35;;;2.88;;
4363;SDS011;15337;48.202;12.770;2022-09-06T11:11:12;3.58;;;3.22;;
4363;SDS011;15337;48.202;12.770;2022-09-06T11:13:44;3.60;;;2.63;;
4363;SDS011;15337;48.202;12.770;2022-09-06T11:16:12;8.15;;;3.60;;
4363;SDS011;15337;48.202;12.770;2022-09-06T11:18:46;3.63;;;3.42;;
4363;SDS011;15337;48.202;12.770;2022-09-06T11:21:21;3.38;;;3.08;;
4363;SDS011;15337;48.202;12.770;2022-09-06T11:24:27;3.45;;;3.00;;
4363;SDS011;15337;48.202;12.770;2022-09-06T11:27:09;4.55;;;2.97;;
4363;SDS011;15337;48.202;12.770;2022-09-06T11:29:44;3.10;;;2.85;;
4363;SDS011;15337;48.202;12.770;2022-09-06T11:32:31;4.95;;;3.53;;
4363;SDS011;15337;48.202;12.770;2022-09-06T11:35:03;7.05;;;3.80;;
4363;SDS011;15337;48.202;12.770;2022-09-06T11:37:35;4.05;;;3.55;;
4363;SDS011;15337;48.202;12.770;2022-09-06T11:40:11;4.18;;;3.25;;
4363;SDS011;15337;48.202;12.770;2022-09-06T11:45:51;4.53;;;3.10;;
4363;SDS011;15337;48.202;12.770;2022-09-06T11:48:31;3.53;;;3.22;;
4363;SDS011;15337;48.202;12.770;2022-09-06T11:51:23;6.22;;;3.22;;
4363;SDS011;15337;48.202;12.770;2022-09-06T11:54:04;4.60;;;3.42;;
4363;SDS011;15337;48.202;12.770;2022-09-06T11:56:46;3.42;;;3.17;;
4363;SDS011;15337;48.202;12.770;2022-09-06T11:59:22;4.90;;;3.03;;
4363;SDS011;15337;48.202;12.770;2022-09-06T12:02:27;3.65;;;3.40;;
4363;SDS011;15337;48.202;12.770;2022-09-06T12:05:15;3.05;;;2.85;;
4363;SDS011;15337;48.202;12.770;2022-09-06T12:11:03;3.65;;;3.08;;
4363;SDS011;15337;48.202;12.770;2022-09-06T12:13:53;3.83;;;3.47;;
4363;SDS011;15337;48.202;12.770;2022-09-06T12:16:22;11.35;;;3.45;;
4363;SDS011;15337;48.202;12.770;2022-09-06T12:18:57;3.10;;;2.85;;
4363;SDS011;15337;48.202;12.770;2022-09-06T12:21:39;3.10;;;2.80;;
4363;SDS011;15337;48.202;12.770;2022-09-06T12:27:11;3.75;;;2.72;;
4363;SDS011;15337;48.202;12.770;2022-09-06T12:29:46;5.53;;;2.33;;
4363;SDS011;15337;48.202;12.770;2022-09-06T12:32:17;2.88;;;2.70;;
4363;SDS011;15337;48.202;12.770;2022-09-06T12:34:48;1.90;;;1.80;;
4363;SDS011;15337;48.202;12.770;2022-09-06T12:37:27;5.88;;;1.73;;
4363;SDS011;15337;48.202;12.770;2022-09-06T12:39:56;4.40;;;1.55;;
4363;SDS011;15337;48.202;12.770;2022-09-06T12:42:23;2.50;;;2.30;;
4363;SDS011;15337;48.202;12.770;2022-09-06T12:44:51;4.15;;;2.08;;
4363;SDS011;15337;48.202;12.770;2022-09-06T12:47:22;5.25;;;2.10;;
4363;SDS011;15337;48.202;12.770;2022-09-06T12:50:11;4.90;;;2.80;;
4363;SDS011;15337;48.202;12.770;2022-09-06T12:52:46;2.60;;;2.25;;
4363;SDS011;15337;48.202;12.770;2022-09-06T12:55:15;2.60;;;2.00;;
4363;SDS011;15337;48.202;12.770;2022-09-06T12:57:46;3.22;;;2.58;;
4363;SDS011;15337;48.202;12.770;2022-09-06T13:00:15;5.03;;;2.67;;
4363;SDS011;15337;48.202;12.770;2022-09-06T13:02:44;2.55;;;2.25;;
4363;SDS011;15337;48.202;12.770;2022-09-06T13:05:20;2.28;;;2.17;;
4363;SDS011;15337;48.202;12.770;2022-09-06T13:07:49;3.30;;;2.88;;
4363;SDS011;15337;48.202;12.770;2022-09-06T13:10:20;2.70;;;2.50;;
4363;SDS011;15337;48.202;12.770;2022-09-06T13:12:49;2.80;;;2.60;;
4363;SDS011;15337;48.202;12.770;2022-09-06T13:15:18;3.63;;;2.92;;
4363;SDS011;15337;48.202;12.770;2022-09-06T13:17:49;5.60;;;2.60;;
4363;SDS011;15337;48.202;12.770;2022-09-06T13:20:22;6.07;;;2.55;;
4363;SDS011;15337;48.202;12.770;2022-09-06T13:22:51;3.22;;;3.03;;
4363;SDS011;15337;48.202;12.770;2022-09-06T13:25:29;5.82;;;3.30;;
4363;SDS011;15337;48.202;12.770;2022-09-06T13:27:57;7.13;;;3.05;;
4363;SDS011;15337;48.202;12.770;2022-09-06T13:30:36;3.13;;;2.92;;
4363;SDS011;15337;48.202;12.770;2022-09-06T13:33:06;6.55;;;2.72;;
4363;SDS011;15337;48.202;12.770;2022-09-06T13:35:46;2.55;;;2.38;;
4363;SDS011;15337;48.202;12.770;2022-09-06T13:41:06;3.95;;;2.58;;
4363;SDS011;15337;48.202;12.770;2022-09-06T13:43:56;3.10;;;2.22;;
4363;SDS011;15337;48.202;12.770;2022-09-06T13:46:24;2.47;;;2.33;;
4363;SDS011;15337;48.202;12.770;2022-09-06T13:48:52;9.45;;;2.47;;
4363;SDS011;15337;48.202;12.770;2022-09-06T13:51:20;3.00;;;2.80;;
4363;SDS011;15337;48.202;12.770;2022-09-06T13:53:47;10.40;;;8.43;;
4363;SDS011;15337;48.202;12.770;2022-09-06T13:56:15;4.22;;;3.90;;
4363;SDS011;15337;48.202;12.770;2022-09-06T13:58:42;2.63;;;2.42;;
4363;SDS011;15337;48.202;12.770;2022-09-06T14:01:09;3.15;;;2.85;;
4363;SDS011;15337;48.202;12.770;2022-09-06T14:03:39;2.92;;;2.40;;
4363;SDS011;15337;48.202;12.770;2022-09-06T14:06:07;2.88;;;2.78;;
4363;SDS011;15337;48.202;12.770;2022-09-06T14:08:36;3.15;;;2.85;;
4363;SDS011;15337;48.202;12.770;2022-09-06T14:11:03;2.33;;;2.10;;
4363;SDS011;15337;48.202;12.770;2022-09-06T14:13:30;3.85;;;2.20;;
4363;SDS011;15337;48.202;12.770;2022-09-06T14:15:57;5.68;;;2.42;;
4363;SDS011;15337;48.202;12.770;2022-09-06T14:18:24;3.75;;;2.10;;
4363;SDS011;15337;48.202;12.770;2022-09-06T14:20:51;9.13;;;2.25;;
4363;SDS011;15337;48.202;12.770;2022-09-06T14:23:20;2.25;;;2.15;;
4363;SDS011;15337;48.202;12.770;2022-09-06T14:25:49;2.85;;;2.65;;
4363;SDS011;15337;48.202;12.770;2022-09-06T14:28:20;5.70;;;2.40;;
4363;SDS011;15337;48.202;12.770;2022-09-06T14:30:47;5.68;;;2.65;;
4363;SDS011;15337;48.202;12.770;2022-09-06T14:33:13;3.38;;;2.10;;
4363;SDS011;15337;48.202;12.770;2022-09-06T14:35:40;2.47;;;2.30;;
4363;SDS011;15337;48.202;12.770;2022-09-06T14:38:07;6.53;;;1.90;;
4363;SDS011;15337;48.202;12.770;2022-09-06T14:40:35;4.75;;;2.20;;
4363;SDS011;15337;48.202;12.770;2022-09-06T14:43:04;2.35;;;2.10;;
4363;SDS011;15337;48.202;12.770;2022-09-06T14:45:32;3.80;;;2.90;;
4363;SDS011;15337;48.202;12.770;2022-09-06T14:47:59;2.33;;;2.13;;
4363;SDS011;15337;48.202;12.770;2022-09-06T14:50:27;5.47;;;2.55;;
4363;SDS011;15337;48.202;12.770;2022-09-06T14:52:55;3.10;;;2.63;;
4363;SDS011;15337;48.202;12.770;2022-09-06T14:55:22;3.65;;;2.20;;
4363;SDS011;15337;48.202;12.770;2022-09-06T14:57:49;3.22;;;2.45;;
4363;SDS011;15337;48.202;12.770;2022-09-06T15:00:18;3.22;;;2.30;;
4363;SDS011;15337;48.202;12.770;2022-09-06T15:02:45;3.35;;;2.50;;